sensor_id;sensor_type;location;lat;lon;timestamp;temperature;humidity
1455;DHT22;721;48.168;12.818;2024-03-25T00:01:24;4.40;30.50
1455;DHT22;721;48.168;12.818;2024-03-25T00:03:51;4.40;27.90
1455;DHT22;721;48.168;12.818;2024-03-25T00:06:17;4.40;28.90
1455;DHT22;721;48.168;12.818;2024-03-25T00:08:44;4.20;28.20
1455;DHT22;721;48.168;12.818;2024-03-25T00:11:09;4.40;27.80
1455;DHT22;721;48.168;12.818;2024-03-25T00:13:36;4.40;27.40
1455;DHT22;721;48.168;12.818;2024-03-25T00:16:02;4.40;26.40
1455;DHT22;721;48.168;12.818;2024-03-25T00:18:31;4.40;27.40
1455;DHT22;721;48.168;12.818;2024-03-25T00:20:57;4.40;24.90
1455;DHT22;721;48.168;12.818;2024-03-25T00:23:24;4.50;26.90
1455;DHT22;721;48.168;12.818;2024-03-25T00:25:50;4.50;25.90
1455;DHT22;721;48.168;12.818;2024-03-25T00:28:17;4.50;24.70
1455;DHT22;721;48.168;12.818;2024-03-25T00:30:44;4.50;25.90
1455;DHT22;721;48.168;12.818;2024-03-25T00:33:11;4.60;24.50
1455;DHT22;721;48.168;12.818;2024-03-25T00:35:38;4.60;24.60
1455;DHT22;721;48.168;12.818;2024-03-25T00:38:05;4.60;23.80
1455;DHT22;721;48.168;12.818;2024-03-25T00:40:32;4.60;22.80
1455;DHT22;721;48.168;12.818;2024-03-25T00:42:59;4.60;23.80
1455;DHT22;721;48.168;12.818;2024-03-25T00:45:25;4.50;23.70
1455;DHT22;721;48.168;12.818;2024-03-25T00:47:56;4.60;23.80
1455;DHT22;721;48.168;12.818;2024-03-25T00:50:21;4.60;23.50
1455;DHT22;721;48.168;12.818;2024-03-25T00:52:49;4.60;23.80
1455;DHT22;721;48.168;12.818;2024-03-25T00:55:15;4.60;22.70
1455;DHT22;721;48.168;12.818;2024-03-25T00:57:42;4.70;22.70
1455;DHT22;721;48.168;12.818;2024-03-25T01:00:10;4.60;23.40
1455;DHT22;721;48.168;12.818;2024-03-25T01:02:37;4.60;23.70
1455;DHT22;721;48.168;12.818;2024-03-25T01:05:03;4.70;22.50
1455;DHT22;721;48.168;12.818;2024-03-25T01:07:30;4.60;22.50
1455;DHT22;721;48.168;12.818;2024-03-25T01:09:57;4.60;22.70
1455;DHT22;721;48.168;12.818;2024-03-25T01:12:25;4.60;22.70
1455;DHT22;721;48.168;12.818;2024-03-25T01:14:51;4.70;22.70
1455;DHT22;721;48.168;12.818;2024-03-25T01:17:18;4.70;22.70
1455;DHT22;721;48.168;12.818;2024-03-25T01:19:43;4.70;22.40
1455;DHT22;721;48.168;12.818;2024-03-25T01:22:10;4.70;22.50
1455;DHT22;721;48.168;12.818;2024-03-25T01:24:36;4.70;21.50
1455;DHT22;721;48.168;12.818;2024-03-25T01:27:04;4.70;22.90
1455;DHT22;721;48.168;12.818;2024-03-25T01:29:30;4.70;22.20
1455;DHT22;721;48.168;12.818;2024-03-25T01:31:57;4.70;22.40
1455;DHT22;721;48.168;12.818;2024-03-25T01:34:24;4.70;20.20
1455;DHT22;721;48.168;12.818;2024-03-25T01:36:51;4.70;21.50
1455;DHT22;721;48.168;12.818;2024-03-25T01:39:17;4.70;21.20
1455;DHT22;721;48.168;12.818;2024-03-25T01:41:44;4.70;21.70
1455;DHT22;721;48.168;12.818;2024-03-25T01:44:11;4.70;22.70
1455;DHT22;721;48.168;12.818;2024-03-25T01:46:39;4.70;22.10
1455;DHT22;721;48.168;12.818;2024-03-25T01:49:06;4.70;22.30
1455;DHT22;721;48.168;12.818;2024-03-25T01:51:33;4.70;22.10
1455;DHT22;721;48.168;12.818;2024-03-25T01:54:01;4.70;22.70
1455;DHT22;721;48.168;12.818;2024-03-25T01:56:31;4.70;22.50
1455;DHT22;721;48.168;12.818;2024-03-25T01:58:59;4.70;22.20
1455;DHT22;721;48.168;12.818;2024-03-25T02:01:28;4.60;22.40
1455;DHT22;721;48.168;12.818;2024-03-25T02:03:55;4.70;22.50
1455;DHT22;721;48.168;12.818;2024-03-25T02:06:24;4.70;22.10
1455;DHT22;721;48.168;12.818;2024-03-25T02:08:52;4.70;22.00
1455;DHT22;721;48.168;12.818;2024-03-25T02:11:19;4.70;21.40
1455;DHT22;721;48.168;12.818;2024-03-25T02:13:46;4.80;21.20
1455;DHT22;721;48.168;12.818;2024-03-25T02:16:13;4.80;22.00
1455;DHT22;721;48.168;12.818;2024-03-25T02:18:40;4.80;22.10
1455;DHT22;721;48.168;12.818;2024-03-25T02:21:07;4.80;22.30
1455;DHT22;721;48.168;12.818;2024-03-25T02:23:33;4.80;22.20
1455;DHT22;721;48.168;12.818;2024-03-25T02:26:02;4.80;22.10
1455;DHT22;721;48.168;12.818;2024-03-25T02:28:28;4.80;20.40
1455;DHT22;721;48.168;12.818;2024-03-25T02:30:55;4.70;21.70
1455;DHT22;721;48.168;12.818;2024-03-25T02:33:21;4.90;21.60
1455;DHT22;721;48.168;12.818;2024-03-25T02:35:48;4.80;21.50
1455;DHT22;721;48.168;12.818;2024-03-25T02:38:14;4.80;20.80
1455;DHT22;721;48.168;12.818;2024-03-25T02:40:43;4.80;21.30
1455;DHT22;721;48.168;12.818;2024-03-25T02:43:11;4.70;20.40
1455;DHT22;721;48.168;12.818;2024-03-25T02:45:38;4.80;21.60
1455;DHT22;721;48.168;12.818;2024-03-25T02:48:05;4.80;21.20
1455;DHT22;721;48.168;12.818;2024-03-25T02:50:32;4.70;19.70
1455;DHT22;721;48.168;12.818;2024-03-25T02:52:57;4.80;20.40
1455;DHT22;721;48.168;12.818;2024-03-25T02:55:24;4.80;19.60
1455;DHT22;721;48.168;12.818;2024-03-25T02:57:50;4.80;19.90
1455;DHT22;721;48.168;12.818;2024-03-25T03:00:18;4.80;18.90
1455;DHT22;721;48.168;12.818;2024-03-25T03:02:44;4.80;19.10
1455;DHT22;721;48.168;12.818;2024-03-25T03:05:11;4.80;19.20
1455;DHT22;721;48.168;12.818;2024-03-25T03:07:36;4.80;18.70
1455;DHT22;721;48.168;12.818;2024-03-25T03:10:03;4.80;18.10
1455;DHT22;721;48.168;12.818;2024-03-25T03:12:30;4.80;17.50
1455;DHT22;721;48.168;12.818;2024-03-25T03:14:57;4.80;18.50
1455;DHT22;721;48.168;12.818;2024-03-25T03:17:24;4.80;18.10
1455;DHT22;721;48.168;12.818;2024-03-25T03:19:51;4.80;19.00
1455;DHT22;721;48.168;12.818;2024-03-25T03:22:17;4.80;18.50
1455;DHT22;721;48.168;12.818;2024-03-25T03:24:43;4.80;18.80
1455;DHT22;721;48.168;12.818;2024-03-25T03:27:09;4.80;18.80
1455;DHT22;721;48.168;12.818;2024-03-25T03:29:36;4.80;19.50
1455;DHT22;721;48.168;12.818;2024-03-25T03:32:02;4.70;18.00
1455;DHT22;721;48.168;12.818;2024-03-25T03:34:30;4.70;18.20
1455;DHT22;721;48.168;12.818;2024-03-25T03:36:56;4.70;18.00
1455;DHT22;721;48.168;12.818;2024-03-25T03:39:23;4.70;19.10
1455;DHT22;721;48.168;12.818;2024-03-25T03:41:48;4.70;19.30
1455;DHT22;721;48.168;12.818;2024-03-25T03:44:15;4.80;18.80
1455;DHT22;721;48.168;12.818;2024-03-25T03:46:41;4.80;18.50
1455;DHT22;721;48.168;12.818;2024-03-25T03:49:08;4.70;18.90
1455;DHT22;721;48.168;12.818;2024-03-25T03:51:35;4.70;18.10
1455;DHT22;721;48.168;12.818;2024-03-25T03:54:02;4.70;18.40
1455;DHT22;721;48.168;12.818;2024-03-25T03:56:28;4.70;18.20
1455;DHT22;721;48.168;12.818;2024-03-25T03:58:55;4.60;18.50
1455;DHT22;721;48.168;12.818;2024-03-25T04:01:21;4.60;18.30
1455;DHT22;721;48.168;12.818;2024-03-25T04:03:47;4.60;19.30
1455;DHT22;721;48.168;12.818;2024-03-25T04:06:14;4.60;19.00
1455;DHT22;721;48.168;12.818;2024-03-25T04:08:42;4.60;19.10
1455;DHT22;721;48.168;12.818;2024-03-25T04:11:08;4.60;19.20
1455;DHT22;721;48.168;12.818;2024-03-25T04:13:36;4.60;18.60
1455;DHT22;721;48.168;12.818;2024-03-25T04:16:03;4.60;19.90
1455;DHT22;721;48.168;12.818;2024-03-25T04:18:30;4.60;19.40
1455;DHT22;721;48.168;12.818;2024-03-25T04:20:56;4.60;18.60
1455;DHT22;721;48.168;12.818;2024-03-25T04:23:24;4.60;19.10
1455;DHT22;721;48.168;12.818;2024-03-25T04:25:51;4.50;19.10
1455;DHT22;721;48.168;12.818;2024-03-25T04:28:18;4.60;20.20
1455;DHT22;721;48.168;12.818;2024-03-25T04:30:50;4.60;18.40
1455;DHT22;721;48.168;12.818;2024-03-25T04:33:17;4.50;19.30
1455;DHT22;721;48.168;12.818;2024-03-25T04:35:46;4.50;19.30
1455;DHT22;721;48.168;12.818;2024-03-25T04:38:11;4.50;19.20
1455;DHT22;721;48.168;12.818;2024-03-25T04:40:37;4.50;19.50
1455;DHT22;721;48.168;12.818;2024-03-25T04:43:05;4.60;19.70
1455;DHT22;721;48.168;12.818;2024-03-25T04:45:31;4.60;19.30
1455;DHT22;721;48.168;12.818;2024-03-25T04:47:56;4.60;18.80
1455;DHT22;721;48.168;12.818;2024-03-25T04:50:22;4.60;18.90
1455;DHT22;721;48.168;12.818;2024-03-25T04:52:48;4.60;18.70
1455;DHT22;721;48.168;12.818;2024-03-25T04:55:15;4.50;18.80
1455;DHT22;721;48.168;12.818;2024-03-25T04:57:40;4.50;18.30
1455;DHT22;721;48.168;12.818;2024-03-25T05:00:09;4.50;19.30
1455;DHT22;721;48.168;12.818;2024-03-25T05:02:36;4.50;18.80
1455;DHT22;721;48.168;12.818;2024-03-25T05:05:02;4.50;19.50
1455;DHT22;721;48.168;12.818;2024-03-25T05:07:28;4.50;19.50
1455;DHT22;721;48.168;12.818;2024-03-25T05:09:54;4.50;19.30
1455;DHT22;721;48.168;12.818;2024-03-25T05:12:20;4.60;19.80
1455;DHT22;721;48.168;12.818;2024-03-25T05:14:46;4.60;19.00
1455;DHT22;721;48.168;12.818;2024-03-25T05:17:13;4.60;18.50
1455;DHT22;721;48.168;12.818;2024-03-25T05:19:39;4.60;18.30
1455;DHT22;721;48.168;12.818;2024-03-25T05:22:05;4.60;18.50
1455;DHT22;721;48.168;12.818;2024-03-25T05:24:30;4.60;19.20
1455;DHT22;721;48.168;12.818;2024-03-25T05:26:56;4.50;17.70
1455;DHT22;721;48.168;12.818;2024-03-25T05:29:22;4.60;18.70
1455;DHT22;721;48.168;12.818;2024-03-25T05:31:56;4.60;18.60
1455;DHT22;721;48.168;12.818;2024-03-25T05:34:24;4.60;18.90
1455;DHT22;721;48.168;12.818;2024-03-25T05:36:50;4.70;18.30
1455;DHT22;721;48.168;12.818;2024-03-25T05:39:15;4.60;18.50
1455;DHT22;721;48.168;12.818;2024-03-25T05:41:41;4.60;17.40
1455;DHT22;721;48.168;12.818;2024-03-25T05:44:07;4.60;18.20
1455;DHT22;721;48.168;12.818;2024-03-25T05:46:33;4.60;18.00
1455;DHT22;721;48.168;12.818;2024-03-25T05:49:01;4.70;17.20
1455;DHT22;721;48.168;12.818;2024-03-25T05:51:29;4.60;17.20
1455;DHT22;721;48.168;12.818;2024-03-25T05:53:55;4.50;18.10
1455;DHT22;721;48.168;12.818;2024-03-25T05:56:21;4.50;18.00
1455;DHT22;721;48.168;12.818;2024-03-25T05:58:46;4.50;18.00
1455;DHT22;721;48.168;12.818;2024-03-25T06:01:12;4.50;18.20
1455;DHT22;721;48.168;12.818;2024-03-25T06:03:38;4.50;18.10
1455;DHT22;721;48.168;12.818;2024-03-25T06:06:04;4.50;18.10
1455;DHT22;721;48.168;12.818;2024-03-25T06:08:31;4.60;18.30
1455;DHT22;721;48.168;12.818;2024-03-25T06:11:01;4.60;16.50
1455;DHT22;721;48.168;12.818;2024-03-25T06:13:27;4.70;16.70
1455;DHT22;721;48.168;12.818;2024-03-25T06:15:53;4.80;17.10
1455;DHT22;721;48.168;12.818;2024-03-25T06:18:19;4.80;16.90
1455;DHT22;721;48.168;12.818;2024-03-25T06:20:45;4.80;16.90
1455;DHT22;721;48.168;12.818;2024-03-25T06:23:11;4.90;16.60
1455;DHT22;721;48.168;12.818;2024-03-25T06:25:48;5.00;16.10
1455;DHT22;721;48.168;12.818;2024-03-25T06:28:14;5.00;15.70
1455;DHT22;721;48.168;12.818;2024-03-25T06:30:40;5.10;16.10
1455;DHT22;721;48.168;12.818;2024-03-25T06:33:24;5.10;15.80
1455;DHT22;721;48.168;12.818;2024-03-25T06:36:08;5.20;15.10
1455;DHT22;721;48.168;12.818;2024-03-25T06:38:34;5.20;13.80
1455;DHT22;721;48.168;12.818;2024-03-25T06:41:01;5.30;15.20
1455;DHT22;721;48.168;12.818;2024-03-25T06:43:27;5.30;14.00
1455;DHT22;721;48.168;12.818;2024-03-25T06:45:53;5.30;13.90
1455;DHT22;721;48.168;12.818;2024-03-25T06:48:19;5.30;12.20
1455;DHT22;721;48.168;12.818;2024-03-25T06:50:52;5.30;13.20
1455;DHT22;721;48.168;12.818;2024-03-25T06:53:18;5.40;13.10
1455;DHT22;721;48.168;12.818;2024-03-25T06:55:51;5.50;12.40
1455;DHT22;721;48.168;12.818;2024-03-25T06:58:19;5.40;9.90
1455;DHT22;721;48.168;12.818;2024-03-25T07:00:45;5.50;12.40
1455;DHT22;721;48.168;12.818;2024-03-25T07:03:11;5.50;10.50
1455;DHT22;721;48.168;12.818;2024-03-25T07:05:37;5.60;10.40
1455;DHT22;721;48.168;12.818;2024-03-25T07:08:03;5.50;10.30
1455;DHT22;721;48.168;12.818;2024-03-25T07:10:29;5.50;9.20
1455;DHT22;721;48.168;12.818;2024-03-25T07:12:55;5.50;9.90
1455;DHT22;721;48.168;12.818;2024-03-25T07:15:22;5.60;9.70
1455;DHT22;721;48.168;12.818;2024-03-25T07:17:48;5.60;10.10
1455;DHT22;721;48.168;12.818;2024-03-25T07:20:14;5.70;9.80
1455;DHT22;721;48.168;12.818;2024-03-25T07:22:40;5.70;9.40
1455;DHT22;721;48.168;12.818;2024-03-25T07:25:07;5.80;7.60
1455;DHT22;721;48.168;12.818;2024-03-25T07:27:32;5.90;8.80
1455;DHT22;721;48.168;12.818;2024-03-25T07:29:58;6.30;7.50
1455;DHT22;721;48.168;12.818;2024-03-25T07:32:26;6.10;6.70
1455;DHT22;721;48.168;12.818;2024-03-25T07:34:51;6.10;6.10
1455;DHT22;721;48.168;12.818;2024-03-25T07:37:17;6.00;5.50
1455;DHT22;721;48.168;12.818;2024-03-25T07:39:46;6.10;6.80
1455;DHT22;721;48.168;12.818;2024-03-25T07:42:11;6.30;4.10
1455;DHT22;721;48.168;12.818;2024-03-25T07:44:37;6.30;5.20
1455;DHT22;721;48.168;12.818;2024-03-25T07:47:04;6.20;3.50
1455;DHT22;721;48.168;12.818;2024-03-25T07:49:31;6.40;4.20
1455;DHT22;721;48.168;12.818;2024-03-25T07:51:57;6.20;3.50
1455;DHT22;721;48.168;12.818;2024-03-25T07:54:23;6.40;3.00
1455;DHT22;721;48.168;12.818;2024-03-25T07:56:49;6.50;3.70
1455;DHT22;721;48.168;12.818;2024-03-25T07:59:14;6.70;3.40
1455;DHT22;721;48.168;12.818;2024-03-25T08:01:40;7.10;2.90
1455;DHT22;721;48.168;12.818;2024-03-25T08:04:06;7.10;1.60
1455;DHT22;721;48.168;12.818;2024-03-25T08:06:33;7.00;1.00
1455;DHT22;721;48.168;12.818;2024-03-25T08:08:59;6.90;1.00
1455;DHT22;721;48.168;12.818;2024-03-25T08:11:25;6.90;1.60
1455;DHT22;721;48.168;12.818;2024-03-25T08:13:51;7.00;1.00
1455;DHT22;721;48.168;12.818;2024-03-25T08:16:17;7.00;1.00
1455;DHT22;721;48.168;12.818;2024-03-25T08:18:43;7.10;1.00
1455;DHT22;721;48.168;12.818;2024-03-25T08:21:08;7.20;1.00
1455;DHT22;721;48.168;12.818;2024-03-25T08:23:37;7.50;1.00
1455;DHT22;721;48.168;12.818;2024-03-25T08:26:03;7.50;1.00
1455;DHT22;721;48.168;12.818;2024-03-25T08:28:29;7.70;1.00
1455;DHT22;721;48.168;12.818;2024-03-25T08:30:54;7.90;1.00
1455;DHT22;721;48.168;12.818;2024-03-25T08:33:20;8.00;1.00
1455;DHT22;721;48.168;12.818;2024-03-25T08:35:46;8.10;1.00
1455;DHT22;721;48.168;12.818;2024-03-25T08:38:12;8.20;1.00
1455;DHT22;721;48.168;12.818;2024-03-25T08:40:39;8.20;1.00
1455;DHT22;721;48.168;12.818;2024-03-25T08:43:05;8.00;1.00
1455;DHT22;721;48.168;12.818;2024-03-25T08:45:31;7.80;1.00
1455;DHT22;721;48.168;12.818;2024-03-25T08:47:57;7.50;1.00
1455;DHT22;721;48.168;12.818;2024-03-25T08:50:23;7.40;1.00
1455;DHT22;721;48.168;12.818;2024-03-25T08:52:49;7.30;1.00
1455;DHT22;721;48.168;12.818;2024-03-25T08:55:15;7.40;1.00
1455;DHT22;721;48.168;12.818;2024-03-25T08:57:42;7.40;1.00
1455;DHT22;721;48.168;12.818;2024-03-25T09:00:09;7.50;1.00
1455;DHT22;721;48.168;12.818;2024-03-25T09:02:35;7.60;1.00
1455;DHT22;721;48.168;12.818;2024-03-25T09:05:01;7.60;1.00
1455;DHT22;721;48.168;12.818;2024-03-25T09:07:28;7.60;1.00
1455;DHT22;721;48.168;12.818;2024-03-25T09:09:54;7.50;1.00
1455;DHT22;721;48.168;12.818;2024-03-25T09:12:38;7.50;1.00
1455;DHT22;721;48.168;12.818;2024-03-25T09:15:06;7.40;1.00
1455;DHT22;721;48.168;12.818;2024-03-25T09:17:32;7.40;1.00
1455;DHT22;721;48.168;12.818;2024-03-25T09:19:58;7.50;1.00
1455;DHT22;721;48.168;12.818;2024-03-25T09:22:24;7.40;1.00
1455;DHT22;721;48.168;12.818;2024-03-25T09:24:50;7.40;1.00
1455;DHT22;721;48.168;12.818;2024-03-25T09:27:16;7.40;1.00
1455;DHT22;721;48.168;12.818;2024-03-25T09:29:42;7.40;1.00
1455;DHT22;721;48.168;12.818;2024-03-25T09:32:09;7.30;1.00
1455;DHT22;721;48.168;12.818;2024-03-25T09:34:35;7.20;1.00
1455;DHT22;721;48.168;12.818;2024-03-25T09:37:00;7.50;1.00
1455;DHT22;721;48.168;12.818;2024-03-25T09:39:26;7.60;1.00
1455;DHT22;721;48.168;12.818;2024-03-25T09:41:55;7.70;1.00
1455;DHT22;721;48.168;12.818;2024-03-25T09:44:22;7.60;1.00
1455;DHT22;721;48.168;12.818;2024-03-25T09:46:50;7.70;1.00
1455;DHT22;721;48.168;12.818;2024-03-25T09:49:17;7.60;1.00
1455;DHT22;721;48.168;12.818;2024-03-25T09:51:44;7.60;1.00
1455;DHT22;721;48.168;12.818;2024-03-25T09:54:10;7.80;1.00
1455;DHT22;721;48.168;12.818;2024-03-25T09:56:37;7.70;1.00
1455;DHT22;721;48.168;12.818;2024-03-25T09:59:04;7.60;1.00
1455;DHT22;721;48.168;12.818;2024-03-25T10:01:30;7.60;1.00
1455;DHT22;721;48.168;12.818;2024-03-25T10:03:56;7.60;1.00
1455;DHT22;721;48.168;12.818;2024-03-25T10:06:23;7.70;1.00
1455;DHT22;721;48.168;12.818;2024-03-25T10:08:53;7.70;1.00
1455;DHT22;721;48.168;12.818;2024-03-25T10:11:19;7.90;1.00
1455;DHT22;721;48.168;12.818;2024-03-25T10:13:45;8.00;1.00
1455;DHT22;721;48.168;12.818;2024-03-25T10:16:11;8.20;1.00
1455;DHT22;721;48.168;12.818;2024-03-25T10:18:37;8.40;1.00
1455;DHT22;721;48.168;12.818;2024-03-25T10:21:03;8.40;1.00
1455;DHT22;721;48.168;12.818;2024-03-25T10:23:31;8.60;1.00
1455;DHT22;721;48.168;12.818;2024-03-25T10:25:57;8.80;1.00
1455;DHT22;721;48.168;12.818;2024-03-25T10:28:23;9.00;1.00
1455;DHT22;721;48.168;12.818;2024-03-25T10:30:48;9.20;1.00
1455;DHT22;721;48.168;12.818;2024-03-25T10:33:14;9.30;1.00
1455;DHT22;721;48.168;12.818;2024-03-25T10:35:45;9.20;1.00
1455;DHT22;721;48.168;12.818;2024-03-25T10:38:14;9.30;1.00
1455;DHT22;721;48.168;12.818;2024-03-25T10:40:44;9.30;1.00
1455;DHT22;721;48.168;12.818;2024-03-25T10:43:11;9.30;1.00
1455;DHT22;721;48.168;12.818;2024-03-25T10:45:40;9.20;1.00
1455;DHT22;721;48.168;12.818;2024-03-25T10:48:12;9.00;1.00
1455;DHT22;721;48.168;12.818;2024-03-25T10:50:41;9.00;1.00
1455;DHT22;721;48.168;12.818;2024-03-25T10:53:10;9.00;1.00
1455;DHT22;721;48.168;12.818;2024-03-25T10:55:37;9.10;1.00
1455;DHT22;721;48.168;12.818;2024-03-25T10:58:04;9.30;1.00
1455;DHT22;721;48.168;12.818;2024-03-25T11:00:30;9.50;1.00
1455;DHT22;721;48.168;12.818;2024-03-25T11:02:58;9.70;1.00
1455;DHT22;721;48.168;12.818;2024-03-25T11:05:25;9.80;1.00
1455;DHT22;721;48.168;12.818;2024-03-25T11:07:51;10.00;1.00
1455;DHT22;721;48.168;12.818;2024-03-25T11:10:17;10.20;1.00
1455;DHT22;721;48.168;12.818;2024-03-25T11:12:43;10.30;1.00
1455;DHT22;721;48.168;12.818;2024-03-25T11:15:10;10.40;1.00
1455;DHT22;721;48.168;12.818;2024-03-25T11:17:36;10.40;1.00
1455;DHT22;721;48.168;12.818;2024-03-25T11:20:14;10.20;1.00
1455;DHT22;721;48.168;12.818;2024-03-25T11:22:48;10.20;1.00
1455;DHT22;721;48.168;12.818;2024-03-25T11:25:14;9.90;1.00
1455;DHT22;721;48.168;12.818;2024-03-25T11:27:43;9.70;1.00
1455;DHT22;721;48.168;12.818;2024-03-25T11:30:11;9.60;1.00
1455;DHT22;721;48.168;12.818;2024-03-25T11:32:44;9.70;1.00
1455;DHT22;721;48.168;12.818;2024-03-25T11:35:11;9.60;1.00
1455;DHT22;721;48.168;12.818;2024-03-25T11:37:41;9.70;1.00
1455;DHT22;721;48.168;12.818;2024-03-25T11:40:07;9.70;1.00
1455;DHT22;721;48.168;12.818;2024-03-25T11:42:34;9.80;1.00
1455;DHT22;721;48.168;12.818;2024-03-25T11:45:00;9.90;1.00
1455;DHT22;721;48.168;12.818;2024-03-25T11:47:28;10.10;1.00
1455;DHT22;721;48.168;12.818;2024-03-25T11:49:54;10.30;1.00
1455;DHT22;721;48.168;12.818;2024-03-25T11:52:20;10.50;1.00
1455;DHT22;721;48.168;12.818;2024-03-25T11:54:53;10.60;1.00
1455;DHT22;721;48.168;12.818;2024-03-25T11:57:20;10.90;1.00
1455;DHT22;721;48.168;12.818;2024-03-25T11:59:46;11.00;1.00
1455;DHT22;721;48.168;12.818;2024-03-25T12:02:12;11.00;1.00
1455;DHT22;721;48.168;12.818;2024-03-25T12:04:42;11.00;1.00
1455;DHT22;721;48.168;12.818;2024-03-25T12:07:10;11.00;1.00
1455;DHT22;721;48.168;12.818;2024-03-25T12:09:36;11.10;1.00
1455;DHT22;721;48.168;12.818;2024-03-25T12:12:28;11.30;1.00
1455;DHT22;721;48.168;12.818;2024-03-25T12:14:55;11.50;1.00
1455;DHT22;721;48.168;12.818;2024-03-25T12:17:21;11.90;1.00
1455;DHT22;721;48.168;12.818;2024-03-25T12:20:01;12.00;1.00
1455;DHT22;721;48.168;12.818;2024-03-25T12:22:29;12.30;1.00
1455;DHT22;721;48.168;12.818;2024-03-25T12:24:57;12.40;1.00
1455;DHT22;721;48.168;12.818;2024-03-25T12:27:24;12.20;1.00
1455;DHT22;721;48.168;12.818;2024-03-25T12:30:00;12.40;1.00
1455;DHT22;721;48.168;12.818;2024-03-25T12:32:37;12.80;1.00
1455;DHT22;721;48.168;12.818;2024-03-25T12:35:07;12.90;1.00
1455;DHT22;721;48.168;12.818;2024-03-25T12:37:33;12.80;1.00
1455;DHT22;721;48.168;12.818;2024-03-25T12:39:59;12.90;1.00
1455;DHT22;721;48.168;12.818;2024-03-25T12:42:25;13.20;1.00
1455;DHT22;721;48.168;12.818;2024-03-25T12:44:51;13.00;1.00
1455;DHT22;721;48.168;12.818;2024-03-25T12:47:17;12.70;1.00
1455;DHT22;721;48.168;12.818;2024-03-25T12:49:43;12.70;1.00
1455;DHT22;721;48.168;12.818;2024-03-25T12:52:11;12.10;1.00
1455;DHT22;721;48.168;12.818;2024-03-25T12:54:37;11.90;1.00
1455;DHT22;721;48.168;12.818;2024-03-25T12:57:03;11.90;1.00
1455;DHT22;721;48.168;12.818;2024-03-25T12:59:29;12.30;1.00
1455;DHT22;721;48.168;12.818;2024-03-25T13:01:55;12.60;1.00
1455;DHT22;721;48.168;12.818;2024-03-25T13:04:21;12.90;1.00
1455;DHT22;721;48.168;12.818;2024-03-25T13:06:47;13.20;1.00
1455;DHT22;721;48.168;12.818;2024-03-25T13:09:14;13.30;1.00
1455;DHT22;721;48.168;12.818;2024-03-25T13:11:41;13.50;1.00
1455;DHT22;721;48.168;12.818;2024-03-25T13:14:06;13.90;1.00
1455;DHT22;721;48.168;12.818;2024-03-25T13:16:33;13.90;1.00
1455;DHT22;721;48.168;12.818;2024-03-25T13:18:59;13.90;1.00
1455;DHT22;721;48.168;12.818;2024-03-25T13:21:25;13.70;1.00
1455;DHT22;721;48.168;12.818;2024-03-25T13:23:51;13.60;1.00
1455;DHT22;721;48.168;12.818;2024-03-25T13:26:18;13.70;1.00
1455;DHT22;721;48.168;12.818;2024-03-25T13:28:44;13.90;1.00
1455;DHT22;721;48.168;12.818;2024-03-25T13:31:10;14.20;1.00
1455;DHT22;721;48.168;12.818;2024-03-25T13:33:36;14.20;1.00
1455;DHT22;721;48.168;12.818;2024-03-25T13:36:02;14.20;1.00
1455;DHT22;721;48.168;12.818;2024-03-25T13:38:28;14.20;1.00
1455;DHT22;721;48.168;12.818;2024-03-25T13:40:54;14.50;1.00
1455;DHT22;721;48.168;12.818;2024-03-25T13:43:21;15.20;1.00
1455;DHT22;721;48.168;12.818;2024-03-25T13:45:48;15.50;1.00
1455;DHT22;721;48.168;12.818;2024-03-25T13:48:14;15.70;1.00
1455;DHT22;721;48.168;12.818;2024-03-25T13:50:40;15.60;1.00
1455;DHT22;721;48.168;12.818;2024-03-25T13:53:07;15.40;1.00
1455;DHT22;721;48.168;12.818;2024-03-25T13:55:33;15.50;1.00
1455;DHT22;721;48.168;12.818;2024-03-25T13:57:59;15.20;1.00
1455;DHT22;721;48.168;12.818;2024-03-25T14:00:27;15.50;1.00
1455;DHT22;721;48.168;12.818;2024-03-25T14:02:53;16.00;1.00
1455;DHT22;721;48.168;12.818;2024-03-25T14:05:18;15.90;1.00
1455;DHT22;721;48.168;12.818;2024-03-25T14:07:44;15.40;1.00
1455;DHT22;721;48.168;12.818;2024-03-25T14:10:10;15.40;1.00
1455;DHT22;721;48.168;12.818;2024-03-25T14:12:36;15.70;1.00
1455;DHT22;721;48.168;12.818;2024-03-25T14:15:03;16.00;1.00
1455;DHT22;721;48.168;12.818;2024-03-25T14:17:30;16.40;1.00
1455;DHT22;721;48.168;12.818;2024-03-25T14:19:56;16.50;1.00
1455;DHT22;721;48.168;12.818;2024-03-25T14:22:22;16.80;1.00
1455;DHT22;721;48.168;12.818;2024-03-25T14:24:48;16.70;1.00
1455;DHT22;721;48.168;12.818;2024-03-25T14:27:15;16.60;1.00
1455;DHT22;721;48.168;12.818;2024-03-25T14:29:41;17.00;1.00
1455;DHT22;721;48.168;12.818;2024-03-25T14:32:08;16.90;1.00
1455;DHT22;721;48.168;12.818;2024-03-25T14:34:35;17.10;1.00
1455;DHT22;721;48.168;12.818;2024-03-25T14:37:01;17.20;1.00
1455;DHT22;721;48.168;12.818;2024-03-25T14:39:27;17.50;1.00
1455;DHT22;721;48.168;12.818;2024-03-25T14:41:53;17.10;1.00
1455;DHT22;721;48.168;12.818;2024-03-25T14:44:18;16.70;1.00
1455;DHT22;721;48.168;12.818;2024-03-25T14:46:44;17.20;1.00
1455;DHT22;721;48.168;12.818;2024-03-25T14:49:10;17.10;1.00
1455;DHT22;721;48.168;12.818;2024-03-25T14:51:37;17.10;1.00
1455;DHT22;721;48.168;12.818;2024-03-25T14:54:03;17.30;1.00
1455;DHT22;721;48.168;12.818;2024-03-25T14:56:29;17.30;1.00
1455;DHT22;721;48.168;12.818;2024-03-25T14:58:55;17.40;1.00
1455;DHT22;721;48.168;12.818;2024-03-25T15:01:21;16.90;1.00
1455;DHT22;721;48.168;12.818;2024-03-25T15:03:47;17.00;1.00
1455;DHT22;721;48.168;12.818;2024-03-25T15:06:13;17.60;1.00
1455;DHT22;721;48.168;12.818;2024-03-25T15:08:40;17.70;1.00
1455;DHT22;721;48.168;12.818;2024-03-25T15:11:06;17.50;1.00
1455;DHT22;721;48.168;12.818;2024-03-25T15:13:32;17.30;1.00
1455;DHT22;721;48.168;12.818;2024-03-25T15:15:58;17.50;1.00
1455;DHT22;721;48.168;12.818;2024-03-25T15:18:24;17.50;1.00
1455;DHT22;721;48.168;12.818;2024-03-25T15:21:00;17.50;1.00
1455;DHT22;721;48.168;12.818;2024-03-25T15:23:25;17.40;1.00
1455;DHT22;721;48.168;12.818;2024-03-25T15:25:53;17.10;1.00
1455;DHT22;721;48.168;12.818;2024-03-25T15:28:19;17.20;1.00
1455;DHT22;721;48.168;12.818;2024-03-25T15:30:46;17.70;1.00
1455;DHT22;721;48.168;12.818;2024-03-25T15:33:12;17.90;1.00
1455;DHT22;721;48.168;12.818;2024-03-25T15:35:38;17.80;1.00
1455;DHT22;721;48.168;12.818;2024-03-25T15:38:04;17.90;1.00
1455;DHT22;721;48.168;12.818;2024-03-25T15:40:30;17.60;1.00
1455;DHT22;721;48.168;12.818;2024-03-25T15:42:57;17.20;1.00
1455;DHT22;721;48.168;12.818;2024-03-25T15:45:23;17.40;1.00
1455;DHT22;721;48.168;12.818;2024-03-25T15:47:49;15.90;1.00
1455;DHT22;721;48.168;12.818;2024-03-25T15:50:16;15.50;1.00
1455;DHT22;721;48.168;12.818;2024-03-25T15:52:42;15.60;1.00
1455;DHT22;721;48.168;12.818;2024-03-25T15:55:08;15.60;1.00
1455;DHT22;721;48.168;12.818;2024-03-25T15:57:34;15.80;1.00
1455;DHT22;721;48.168;12.818;2024-03-25T16:00:02;15.80;1.00
1455;DHT22;721;48.168;12.818;2024-03-25T16:02:28;15.80;1.00
1455;DHT22;721;48.168;12.818;2024-03-25T16:04:54;15.90;1.00
1455;DHT22;721;48.168;12.818;2024-03-25T16:07:20;16.00;1.00
1455;DHT22;721;48.168;12.818;2024-03-25T16:09:46;16.00;1.00
1455;DHT22;721;48.168;12.818;2024-03-25T16:12:11;15.80;1.00
1455;DHT22;721;48.168;12.818;2024-03-25T16:14:37;16.00;1.00
1455;DHT22;721;48.168;12.818;2024-03-25T16:17:05;15.90;1.00
1455;DHT22;721;48.168;12.818;2024-03-25T16:19:30;15.80;1.00